createdAt,value
2023-12-21T04:46:19.996Z,96.30
2023-12-21T04:48:47.164Z,96.30
2023-12-21T04:51:15.607Z,96.00
2023-12-21T04:53:42.595Z,95.90
2023-12-21T04:56:10.247Z,95.50
2023-12-21T04:58:39.214Z,95.90
2023-12-21T05:01:07.020Z,95.70
2023-12-21T05:03:34.416Z,95.80
2023-12-21T05:06:04.326Z,95.70
2023-12-21T05:08:31.982Z,95.90
2023-12-21T05:10:58.963Z,96.00
2023-12-21T05:13:26.031Z,95.80
2023-12-21T05:15:53.135Z,96.00
2023-12-21T05:18:20.243Z,96.30
2023-12-21T05:20:47.234Z,96.10
2023-12-21T05:23:14.284Z,96.50
2023-12-21T05:25:41.429Z,96.40
2023-12-21T05:28:08.828Z,96.30
2023-12-21T05:30:35.952Z,96.20
2023-12-21T05:33:02.923Z,96.60
2023-12-21T05:35:29.859Z,96.60
2023-12-21T05:37:56.810Z,96.70
2023-12-21T05:40:23.891Z,97.00
2023-12-21T05:42:51.383Z,97.10
2023-12-21T05:45:18.585Z,96.90
2023-12-21T05:47:45.622Z,97.10
2023-12-21T05:50:12.665Z,96.90
2023-12-21T05:52:39.809Z,97.00
2023-12-21T05:55:07.058Z,97.10
2023-12-21T05:57:34.158Z,97.00
2023-12-21T06:00:01.154Z,97.10
2023-12-21T06:02:28.080Z,97.30
2023-12-21T06:04:55.087Z,97.10
2023-12-21T06:07:22.130Z,97.10
2023-12-21T06:09:50.347Z,97.20
2023-12-21T06:12:17.292Z,97.30
2023-12-21T06:14:44.315Z,97.50
2023-12-21T06:17:12.406Z,97.50
2023-12-21T06:19:39.477Z,97.50
2023-12-21T06:22:06.912Z,97.50
2023-12-21T06:24:33.921Z,97.70
2023-12-21T06:27:00.906Z,98.20
2023-12-21T06:29:27.855Z,98.80
2023-12-21T06:31:54.962Z,99.10
2023-12-21T06:34:22.821Z,98.80
2023-12-21T06:36:49.810Z,98.70
2023-12-21T06:39:16.980Z,98.70
2023-12-21T06:41:44.133Z,98.50
2023-12-21T06:44:12.059Z,98.50
2023-12-21T06:46:39.049Z,98.20
2023-12-21T06:49:06.191Z,98.40
2023-12-21T06:51:33.248Z,98.50
2023-12-21T06:54:00.263Z,98.60
2023-12-21T06:56:34.143Z,98.80
2023-12-21T06:59:03.128Z,98.70
2023-12-21T07:01:30.578Z,98.80
2023-12-21T07:03:58.310Z,98.80
2023-12-21T07:06:28.668Z,98.80
2023-12-21T07:08:55.802Z,98.90
2023-12-21T07:11:24.161Z,99.10
2023-12-21T07:13:51.281Z,99.10
2023-12-21T07:16:18.422Z,99.20
2023-12-21T07:18:45.513Z,99.10
2023-12-21T07:21:14.148Z,98.90
2023-12-21T07:23:41.681Z,98.90
2023-12-21T07:26:10.533Z,98.90
2023-12-21T07:28:37.693Z,99.00
2023-12-21T07:31:04.858Z,99.30
2023-12-21T07:33:32.435Z,99.10
2023-12-21T07:35:59.449Z,99.20
2023-12-21T07:38:26.391Z,99.60
2023-12-21T07:40:53.438Z,99.80
2023-12-21T07:43:20.632Z,99.90
2023-12-21T07:45:48.371Z,99.90
2023-12-21T07:48:15.776Z,99.90
2023-12-21T07:50:42.810Z,99.90
2023-12-21T07:53:09.768Z,99.90
2023-12-21T07:55:36.808Z,99.90
2023-12-21T07:58:04.499Z,99.90
2023-12-21T08:00:31.448Z,99.90
2023-12-21T08:02:58.394Z,99.90
2023-12-21T08:05:25.511Z,99.90
2023-12-21T08:07:52.511Z,99.90
2023-12-21T08:10:19.671Z,99.90
2023-12-21T08:12:47.731Z,99.90
2023-12-21T08:15:15.639Z,99.90
2023-12-21T08:17:45.322Z,99.90
2023-12-21T08:20:16.567Z,99.90
2023-12-21T08:22:45.342Z,99.90
2023-12-21T08:25:12.934Z,99.90
2023-12-21T08:27:42.512Z,99.90
2023-12-21T08:30:10.383Z,99.90
2023-12-21T08:32:37.374Z,99.90
2023-12-21T08:35:05.950Z,99.90
2023-12-21T08:37:33.101Z,99.90
2023-12-21T08:40:00.169Z,99.90
2023-12-21T08:42:28.209Z,99.90
2023-12-21T08:44:55.292Z,99.90
2023-12-21T08:47:22.261Z,99.90
2023-12-21T08:49:49.319Z,99.90
2023-12-21T08:52:16.340Z,99.90
2023-12-21T08:54:43.690Z,99.90
2023-12-21T08:57:12.625Z,99.90
2023-12-21T08:59:39.593Z,99.90
2023-12-21T09:02:06.651Z,99.90
2023-12-21T09:04:33.646Z,99.90
2023-12-21T09:07:00.698Z,99.90
2023-12-21T09:09:28.023Z,99.90
2023-12-21T09:11:55.009Z,99.90
2023-12-21T09:14:23.772Z,99.90
2023-12-21T09:16:52.681Z,99.90
2023-12-21T09:19:19.794Z,99.90
2023-12-21T09:21:46.748Z,99.90
2023-12-21T09:24:13.760Z,99.90
2023-12-21T09:26:40.742Z,99.90
2023-12-21T09:29:07.693Z,99.90
2023-12-21T09:31:34.824Z,99.90
2023-12-21T09:34:02.080Z,99.90
2023-12-21T09:36:29.111Z,99.90
2023-12-21T09:38:56.052Z,99.90
2023-12-21T09:41:23.023Z,99.90
2023-12-21T09:43:53.159Z,99.90
2023-12-21T09:46:21.420Z,99.90
2023-12-21T09:48:48.566Z,99.90
2023-12-21T09:51:16.361Z,99.90
2023-12-21T09:53:45.022Z,99.90
2023-12-21T09:56:13.285Z,99.90
2023-12-21T09:58:40.695Z,99.90
2023-12-21T10:01:07.999Z,99.90
2023-12-21T10:03:35.097Z,99.90
2023-12-21T10:06:04.455Z,99.90
2023-12-21T10:08:34.437Z,99.90
2023-12-21T10:11:03.927Z,99.90
2023-12-21T10:13:32.291Z,99.90
2023-12-21T10:16:00.272Z,99.90
2023-12-21T10:18:30.537Z,99.90
2023-12-21T10:20:58.641Z,99.90
2023-12-21T10:23:26.126Z,99.90
2023-12-21T10:25:53.735Z,99.90
2023-12-21T10:28:24.307Z,99.90
2023-12-21T10:30:57.510Z,99.90
2023-12-21T10:33:27.536Z,99.90
2023-12-21T10:35:54.590Z,99.90
2023-12-21T10:38:23.166Z,99.90
2023-12-21T10:40:53.117Z,99.90
2023-12-21T10:43:20.270Z,99.90
2023-12-21T10:45:47.694Z,99.90
2023-12-21T10:48:16.333Z,99.90
2023-12-21T10:50:52.521Z,99.90
2023-12-21T10:53:20.079Z,99.90
2023-12-21T10:55:50.047Z,99.90
2023-12-21T10:58:17.605Z,99.90
2023-12-21T11:00:44.952Z,99.90
2023-12-21T11:03:13.893Z,99.90
2023-12-21T11:05:42.370Z,99.90
2023-12-21T11:08:09.636Z,99.90
2023-12-21T11:10:37.402Z,99.90
2023-12-21T11:13:04.661Z,99.90
2023-12-21T11:15:31.802Z,99.90
2023-12-21T11:18:19.110Z,99.90
2023-12-21T11:20:52.928Z,99.90
2023-12-21T11:23:21.606Z,99.90
2023-12-21T11:25:55.161Z,99.90
2023-12-21T11:28:29.849Z,99.90
2023-12-21T11:30:57.176Z,99.90
2023-12-21T11:33:31.752Z,99.90
2023-12-21T11:35:59.180Z,99.90
2023-12-21T11:38:41.732Z,99.90
2023-12-21T11:41:10.052Z,99.90
2023-12-21T11:43:37.110Z,99.90
2023-12-21T11:46:04.229Z,99.90
2023-12-21T11:48:33.133Z,99.90
2023-12-21T11:51:03.574Z,99.90
2023-12-21T11:53:39.078Z,99.90
2023-12-21T11:56:14.342Z,99.90
2023-12-21T11:58:41.874Z,99.90
2023-12-21T12:01:09.433Z,99.90
2023-12-21T12:03:36.548Z,99.90
2023-12-21T12:06:05.617Z,99.90
2023-12-21T12:08:34.057Z,99.90
2023-12-21T12:11:01.004Z,99.90
2023-12-21T12:13:28.552Z,99.90
2023-12-21T12:15:55.756Z,99.90
2023-12-21T12:18:23.742Z,99.90
2023-12-21T12:20:52.749Z,99.90
2023-12-21T12:23:19.823Z,99.90
2023-12-21T12:25:49.460Z,99.90
2023-12-21T12:28:19.400Z,99.90
2023-12-21T12:30:49.174Z,99.90
2023-12-21T12:33:16.628Z,99.90
2023-12-21T12:35:49.396Z,99.90
2023-12-21T12:38:17.690Z,99.90
2023-12-21T12:40:47.489Z,99.90
2023-12-21T12:43:14.674Z,99.90
2023-12-21T12:45:42.993Z,99.90
2023-12-21T12:48:11.522Z,99.90
2023-12-21T12:50:38.510Z,99.90
2023-12-21T12:53:08.879Z,99.90
2023-12-21T12:55:36.869Z,99.90
2023-12-21T12:58:05.482Z,99.90
2023-12-21T13:00:32.509Z,99.90
2023-12-21T13:02:59.887Z,99.90
2023-12-21T13:05:26.964Z,99.90
2023-12-21T13:07:54.240Z,99.90
2023-12-21T13:10:21.396Z,99.90
2023-12-21T13:12:48.416Z,99.90
2023-12-21T13:15:18.262Z,99.90
2023-12-21T13:17:45.737Z,99.90
2023-12-21T13:20:13.042Z,99.90
2023-12-21T13:22:40.598Z,99.90
2023-12-21T13:25:08.025Z,99.90
2023-12-21T13:27:35.469Z,99.90
2023-12-21T13:30:02.942Z,99.90
2023-12-21T13:32:30.426Z,99.90
2023-12-21T13:34:57.793Z,99.90
2023-12-21T13:37:24.833Z,99.90
2023-12-21T13:39:52.155Z,99.90
2023-12-21T13:42:19.232Z,99.90
2023-12-21T13:44:46.290Z,99.90
2023-12-21T13:47:15.861Z,99.90
2023-12-21T13:49:43.277Z,99.90
2023-12-21T13:52:10.422Z,99.90
2023-12-21T13:54:38.736Z,99.90
2023-12-21T13:57:11.496Z,99.90
2023-12-21T13:59:42.060Z,99.90
2023-12-21T14:02:09.424Z,99.90
2023-12-21T14:04:37.457Z,99.90
2023-12-21T14:07:04.944Z,99.90
2023-12-21T14:09:32.020Z,99.90
2023-12-21T14:11:59.691Z,99.90
2023-12-21T14:14:26.633Z,99.90
2023-12-21T14:16:53.558Z,99.90
2023-12-21T14:19:21.244Z,99.90
2023-12-21T14:21:48.725Z,99.90
2023-12-21T14:24:15.688Z,99.90
2023-12-21T14:26:42.890Z,99.90
2023-12-21T14:29:09.914Z,99.90
2023-12-21T14:31:36.917Z,99.90
2023-12-21T14:34:04.297Z,99.90
2023-12-21T14:36:31.476Z,99.90
2023-12-21T14:38:58.500Z,99.90
2023-12-21T14:41:25.449Z,99.90
2023-12-21T14:43:52.496Z,99.90
2023-12-21T14:46:19.649Z,99.90
2023-12-21T14:48:46.776Z,99.90
2023-12-21T14:51:17.666Z,99.90
2023-12-21T14:53:44.937Z,99.90
2023-12-21T14:56:12.106Z,99.90
2023-12-21T14:58:39.162Z,99.90
2023-12-21T15:01:07.957Z,99.90
2023-12-21T15:03:35.709Z,99.90
2023-12-21T15:06:03.344Z,99.90
2023-12-21T15:08:30.788Z,99.90
2023-12-21T15:10:59.077Z,99.90
2023-12-21T15:13:27.499Z,99.90
2023-12-21T15:15:54.624Z,99.90
2023-12-21T15:18:22.909Z,99.90
2023-12-21T15:20:50.497Z,99.90
2023-12-21T15:23:17.605Z,99.90
2023-12-21T15:25:44.607Z,99.90
2023-12-21T15:28:11.899Z,99.90
2023-12-21T15:30:39.007Z,99.90
2023-12-21T15:33:06.115Z,99.90
2023-12-21T15:35:33.153Z,99.90
2023-12-21T15:38:00.372Z,99.90
2023-12-21T15:40:27.462Z,99.90
2023-12-21T15:42:54.453Z,99.90
2023-12-21T15:45:21.540Z,99.90
2023-12-21T15:47:50.442Z,99.90
2023-12-21T15:50:18.089Z,99.90
2023-12-21T15:52:45.605Z,99.90
2023-12-21T15:55:13.109Z,99.90
2023-12-21T15:57:40.140Z,99.90
2023-12-21T16:00:08.132Z,99.90
2023-12-21T16:02:35.226Z,99.90
2023-12-21T16:05:02.432Z,99.90
2023-12-21T16:07:29.499Z,99.90
2023-12-21T16:09:58.841Z,99.90
2023-12-21T16:12:26.024Z,99.90
2023-12-21T16:14:52.975Z,99.90
2023-12-21T16:17:21.831Z,99.90
2023-12-21T16:19:49.059Z,99.90
2023-12-21T16:22:16.146Z,99.90
2023-12-21T16:24:43.171Z,99.90
2023-12-21T16:27:10.697Z,99.90
2023-12-21T16:29:41.574Z,99.90
2023-12-21T16:32:09.262Z,99.90
2023-12-21T16:34:40.556Z,99.90
2023-12-21T16:37:07.977Z,99.90
2023-12-21T16:39:35.005Z,99.90
2023-12-21T16:42:01.942Z,99.90
2023-12-21T16:44:28.902Z,99.90
2023-12-21T16:46:55.968Z,99.90
2023-12-21T16:49:23.616Z,99.90
2023-12-21T16:51:50.667Z,99.90
2023-12-21T16:54:17.600Z,99.90
2023-12-21T16:56:44.765Z,99.90
2023-12-21T16:59:11.860Z,99.90
2023-12-21T17:01:38.962Z,99.90
2023-12-21T17:04:06.033Z,99.90
2023-12-21T17:06:33.281Z,99.90
2023-12-21T17:09:00.403Z,99.90
2023-12-21T17:11:27.402Z,99.90
2023-12-21T17:13:54.480Z,99.90
2023-12-21T17:16:23.962Z,99.90
2023-12-21T17:18:51.523Z,99.90
2023-12-21T17:21:18.836Z,99.90
2023-12-21T17:23:45.882Z,99.90
2023-12-21T17:26:13.007Z,99.90
2023-12-21T17:28:41.590Z,99.90
2023-12-21T17:31:09.085Z,99.90
2023-12-21T17:33:36.214Z,99.90
2023-12-21T17:36:04.361Z,99.90
2023-12-21T17:38:31.565Z,99.90
2023-12-21T17:40:59.465Z,99.90
2023-12-21T17:43:26.973Z,99.90
2023-12-21T17:45:54.046Z,99.90
2023-12-21T17:48:21.194Z,99.90
2023-12-21T17:50:48.205Z,99.90
2023-12-21T17:53:15.289Z,99.90
2023-12-21T17:55:43.154Z,99.90
2023-12-21T17:58:10.216Z,99.90
2023-12-21T18:00:37.298Z,99.90
2023-12-21T18:03:04.439Z,99.90
2023-12-21T18:05:31.510Z,99.90
2023-12-21T18:07:58.643Z,99.90
2023-12-21T18:10:25.826Z,99.90
2023-12-21T18:12:52.867Z,99.90
2023-12-21T18:15:20.372Z,99.90
2023-12-21T18:17:47.848Z,99.90
2023-12-21T18:20:18.281Z,99.90
2023-12-21T18:22:45.564Z,99.90
2023-12-21T18:25:13.074Z,99.90
2023-12-21T18:27:40.079Z,99.90
2023-12-21T18:30:07.317Z,99.90
2023-12-21T18:32:34.521Z,99.90
2023-12-21T18:35:02.049Z,99.90
2023-12-21T18:37:29.147Z,99.90
2023-12-21T18:39:56.574Z,99.90
2023-12-21T18:42:23.542Z,99.90
2023-12-21T18:44:50.931Z,99.90
2023-12-21T18:47:18.386Z,99.90
2023-12-21T18:49:46.072Z,99.90
2023-12-21T18:52:13.408Z,99.90
2023-12-21T18:54:41.164Z,99.90
2023-12-21T18:57:08.260Z,99.90
2023-12-21T18:59:35.262Z,99.90
2023-12-21T19:02:02.316Z,99.90
2023-12-21T19:04:29.471Z,99.90
2023-12-21T19:06:56.511Z,99.90
2023-12-21T19:09:23.502Z,99.90
2023-12-21T19:11:50.564Z,99.90
2023-12-21T19:14:18.300Z,99.90
2023-12-21T19:16:45.744Z,99.90
2023-12-21T19:19:12.964Z,99.90
2023-12-21T19:21:48.910Z,99.90
2023-12-21T19:24:15.885Z,99.90
2023-12-21T19:26:42.856Z,99.90
2023-12-21T19:29:10.187Z,99.90
2023-12-21T19:31:37.449Z,99.90
2023-12-21T19:34:04.469Z,99.90
2023-12-21T19:36:31.707Z,99.90
2023-12-21T19:39:00.195Z,99.90
2023-12-21T19:41:27.861Z,99.90
2023-12-21T19:43:54.931Z,99.90
2023-12-21T19:46:22.300Z,99.90
2023-12-21T19:48:49.374Z,99.90
2023-12-21T19:51:16.348Z,99.90
2023-12-21T19:53:43.341Z,99.90
2023-12-21T19:56:10.637Z,99.90
2023-12-21T19:58:37.638Z,99.90
2023-12-21T20:01:05.390Z,99.90
2023-12-21T20:03:34.682Z,99.90
2023-12-21T20:06:01.630Z,99.90
2023-12-21T20:08:28.632Z,99.90
2023-12-21T20:10:58.587Z,99.90
2023-12-21T20:13:25.849Z,99.90
2023-12-21T20:15:52.820Z,99.90
2023-12-21T20:18:20.417Z,99.90
2023-12-21T20:20:47.468Z,99.90
2023-12-21T20:23:14.537Z,99.90
2023-12-21T20:25:41.580Z,99.90
2023-12-21T20:28:09.013Z,99.90
2023-12-21T20:30:37.474Z,99.90
2023-12-21T20:33:07.380Z,99.90
2023-12-21T20:35:36.449Z,99.90
2023-12-21T20:38:04.884Z,99.90
2023-12-21T20:40:32.052Z,99.90
2023-12-21T20:42:58.986Z,99.90
2023-12-21T20:45:25.946Z,99.90
2023-12-21T20:47:52.921Z,99.90
2023-12-21T20:50:20.128Z,99.90
2023-12-21T20:52:47.531Z,99.90
2023-12-21T20:55:15.831Z,99.90
2023-12-21T20:57:43.036Z,99.90
2023-12-21T21:00:10.441Z,99.90
2023-12-21T21:02:37.450Z,99.90
2023-12-21T21:05:05.238Z,99.90
2023-12-21T21:07:32.415Z,99.90
2023-12-21T21:09:59.499Z,99.90
2023-12-21T21:12:26.470Z,99.60
2023-12-21T21:14:53.433Z,99.50
2023-12-21T21:17:24.844Z,99.40
2023-12-21T21:19:52.310Z,99.40
2023-12-21T21:22:19.748Z,99.40
2023-12-21T21:24:47.318Z,99.40
2023-12-21T21:27:14.285Z,99.40
2023-12-21T21:29:41.348Z,99.20
2023-12-21T21:32:08.825Z,99.40
2023-12-21T21:34:38.645Z,99.40
2023-12-21T21:37:05.996Z,99.40
2023-12-21T21:39:35.651Z,99.30
2023-12-21T21:42:02.645Z,99.00
2023-12-21T21:44:32.006Z,99.50
2023-12-21T21:46:59.111Z,99.70
2023-12-21T21:49:26.330Z,99.70
2023-12-21T21:51:53.348Z,99.80
2023-12-21T21:54:20.335Z,99.70
2023-12-21T21:56:47.378Z,99.40
2023-12-21T21:59:14.942Z,99.40
2023-12-21T22:01:45.900Z,99.20
2023-12-21T22:04:13.427Z,99.40
2023-12-21T22:06:41.035Z,99.20
2023-12-21T22:09:07.993Z,99.20
2023-12-21T22:11:35.066Z,99.10
2023-12-21T22:14:02.229Z,99.10
2023-12-21T22:16:29.245Z,99.10
2023-12-21T22:18:56.368Z,99.30
2023-12-21T22:21:23.320Z,99.60
2023-12-21T22:23:50.298Z,99.50
2023-12-21T22:26:17.915Z,99.60
2023-12-21T22:28:44.895Z,99.60
2023-12-21T22:31:11.984Z,99.80
2023-12-21T22:33:39.071Z,99.80
2023-12-21T22:36:06.115Z,99.80
2023-12-21T22:38:35.382Z,99.90
2023-12-21T22:41:05.315Z,99.90
2023-12-21T22:43:41.669Z,99.90
2023-12-21T22:46:10.133Z,99.90
2023-12-21T22:48:37.544Z,99.90
2023-12-21T22:51:05.114Z,99.90
2023-12-21T22:53:32.695Z,99.90
2023-12-21T22:55:59.828Z,99.90
2023-12-21T22:58:26.943Z,99.90
2023-12-21T23:00:53.972Z,99.90
2023-12-21T23:03:20.964Z,99.80
2023-12-21T23:05:48.033Z,99.60
2023-12-21T23:08:15.026Z,99.20
2023-12-21T23:10:44.295Z,99.10
2023-12-21T23:13:18.028Z,98.90
2023-12-21T23:15:45.629Z,98.90
2023-12-21T23:18:12.972Z,98.60
2023-12-21T23:20:40.125Z,98.30
2023-12-21T23:23:07.143Z,98.20
2023-12-21T23:25:34.189Z,98.10
2023-12-21T23:28:01.132Z,98.60
2023-12-21T23:30:28.094Z,98.30
2023-12-21T23:32:55.167Z,98.10
2023-12-21T23:35:23.763Z,98.00
2023-12-21T23:37:51.839Z,97.90
2023-12-21T23:40:19.152Z,97.60
2023-12-21T23:42:46.773Z,97.40
2023-12-21T23:45:14.009Z,97.50
2023-12-21T23:47:41.315Z,97.60
2023-12-21T23:50:08.790Z,97.80
2023-12-21T23:52:36.342Z,97.70
2023-12-21T23:55:05.004Z,97.90
2023-12-21T23:57:31.941Z,98.50
2023-12-21T23:59:58.864Z,98.40
